sensor_id;sensor_type;location;lat;lon;timestamp;P1;durP1;ratioP1;P2;durP2;ratioP2
57651;SDS011;43480;53.116;6.734;2024-02-21T00:00:46;17.27;;;4.25;;
57651;SDS011;43480;53.116;6.734;2024-02-21T00:03:14;13.98;;;4.28;;
57651;SDS011;43480;53.116;6.734;2024-02-21T00:05:40;10.98;;;3.85;;
57651;SDS011;43480;53.116;6.734;2024-02-21T00:08:06;12.57;;;4.43;;
57651;SDS011;43480;53.116;6.734;2024-02-21T00:10:32;16.45;;;5.50;;
57651;SDS011;43480;53.116;6.734;2024-02-21T00:12:58;14.45;;;4.30;;
57651;SDS011;43480;53.116;6.734;2024-02-21T00:15:27;18.48;;;4.70;;
57651;SDS011;43480;53.116;6.734;2024-02-21T00:17:52;14.32;;;4.85;;
57651;SDS011;43480;53.116;6.734;2024-02-21T00:20:18;17.42;;;4.57;;
57651;SDS011;43480;53.116;6.734;2024-02-21T00:22:45;11.27;;;4.20;;
57651;SDS011;43480;53.116;6.734;2024-02-21T00:25:10;11.27;;;4.78;;
57651;SDS011;43480;53.116;6.734;2024-02-21T00:27:36;15.88;;;4.88;;
57651;SDS011;43480;53.116;6.734;2024-02-21T00:30:02;13.77;;;4.68;;
57651;SDS011;43480;53.116;6.734;2024-02-21T00:32:28;17.55;;;4.65;;
57651;SDS011;43480;53.116;6.734;2024-02-21T00:34:54;14.38;;;4.15;;
57651;SDS011;43480;53.116;6.734;2024-02-21T00:37:20;14.88;;;4.65;;
57651;SDS011;43480;53.116;6.734;2024-02-21T00:39:45;19.05;;;5.75;;
57651;SDS011;43480;53.116;6.734;2024-02-21T00:42:11;18.80;;;5.20;;
57651;SDS011;43480;53.116;6.734;2024-02-21T00:44:37;15.27;;;5.32;;
57651;SDS011;43480;53.116;6.734;2024-02-21T00:47:02;14.10;;;5.13;;
57651;SDS011;43480;53.116;6.734;2024-02-21T00:49:28;15.05;;;5.07;;
57651;SDS011;43480;53.116;6.734;2024-02-21T00:51:54;14.57;;;4.43;;
57651;SDS011;43480;53.116;6.734;2024-02-21T00:54:19;20.60;;;5.85;;
57651;SDS011;43480;53.116;6.734;2024-02-21T00:56:45;16.75;;;5.20;;
57651;SDS011;43480;53.116;6.734;2024-02-21T00:59:10;17.88;;;5.10;;
57651;SDS011;43480;53.116;6.734;2024-02-21T01:01:36;25.63;;;6.07;;
57651;SDS011;43480;53.116;6.734;2024-02-21T01:04:02;18.25;;;5.28;;
57651;SDS011;43480;53.116;6.734;2024-02-21T01:06:27;20.88;;;6.22;;
57651;SDS011;43480;53.116;6.734;2024-02-21T01:08:53;16.73;;;6.75;;
57651;SDS011;43480;53.116;6.734;2024-02-21T01:11:19;18.38;;;5.88;;
57651;SDS011;43480;53.116;6.734;2024-02-21T01:13:44;19.48;;;6.35;;
57651;SDS011;43480;53.116;6.734;2024-02-21T01:16:10;19.20;;;5.90;;
57651;SDS011;43480;53.116;6.734;2024-02-21T01:18:38;17.90;;;6.47;;
57651;SDS011;43480;53.116;6.734;2024-02-21T01:21:05;21.42;;;7.25;;
57651;SDS011;43480;53.116;6.734;2024-02-21T01:23:35;21.08;;;5.88;;
57651;SDS011;43480;53.116;6.734;2024-02-21T01:26:01;16.90;;;5.72;;
57651;SDS011;43480;53.116;6.734;2024-02-21T01:28:27;19.52;;;6.35;;
57651;SDS011;43480;53.116;6.734;2024-02-21T01:30:52;12.18;;;4.60;;
57651;SDS011;43480;53.116;6.734;2024-02-21T01:33:18;17.17;;;6.82;;
57651;SDS011;43480;53.116;6.734;2024-02-21T01:35:44;18.63;;;5.60;;
57651;SDS011;43480;53.116;6.734;2024-02-21T01:38:10;20.95;;;6.38;;
57651;SDS011;43480;53.116;6.734;2024-02-21T01:40:37;17.17;;;6.15;;
57651;SDS011;43480;53.116;6.734;2024-02-21T01:43:03;18.23;;;6.07;;
57651;SDS011;43480;53.116;6.734;2024-02-21T01:45:29;18.23;;;6.97;;
57651;SDS011;43480;53.116;6.734;2024-02-21T01:47:54;15.63;;;6.85;;
57651;SDS011;43480;53.116;6.734;2024-02-21T01:50:21;16.42;;;6.70;;
57651;SDS011;43480;53.116;6.734;2024-02-21T01:52:48;17.02;;;8.23;;
57651;SDS011;43480;53.116;6.734;2024-02-21T01:55:15;19.77;;;6.93;;
57651;SDS011;43480;53.116;6.734;2024-02-21T01:57:42;19.02;;;7.13;;
57651;SDS011;43480;53.116;6.734;2024-02-21T02:00:11;23.00;;;8.07;;
57651;SDS011;43480;53.116;6.734;2024-02-21T02:02:38;17.42;;;6.70;;
57651;SDS011;43480;53.116;6.734;2024-02-21T02:05:04;19.02;;;7.30;;
57651;SDS011;43480;53.116;6.734;2024-02-21T02:07:31;17.77;;;7.03;;
57651;SDS011;43480;53.116;6.734;2024-02-21T02:09:57;16.38;;;7.15;;
57651;SDS011;43480;53.116;6.734;2024-02-21T02:12:23;18.67;;;7.53;;
57651;SDS011;43480;53.116;6.734;2024-02-21T02:15:02;22.15;;;7.32;;
57651;SDS011;43480;53.116;6.734;2024-02-21T02:17:31;14.50;;;6.72;;
57651;SDS011;43480;53.116;6.734;2024-02-21T02:19:57;18.05;;;8.20;;
57651;SDS011;43480;53.116;6.734;2024-02-21T02:22:23;18.38;;;7.53;;
57651;SDS011;43480;53.116;6.734;2024-02-21T02:24:57;20.98;;;7.97;;
57651;SDS011;43480;53.116;6.734;2024-02-21T02:27:22;15.95;;;6.93;;
57651;SDS011;43480;53.116;6.734;2024-02-21T02:29:51;23.73;;;9.98;;
57651;SDS011;43480;53.116;6.734;2024-02-21T02:32:17;17.40;;;8.23;;
57651;SDS011;43480;53.116;6.734;2024-02-21T02:34:43;20.98;;;9.43;;
57651;SDS011;43480;53.116;6.734;2024-02-21T02:37:08;21.15;;;9.18;;
57651;SDS011;43480;53.116;6.734;2024-02-21T02:39:34;19.27;;;9.55;;
57651;SDS011;43480;53.116;6.734;2024-02-21T02:42:01;19.52;;;9.25;;
57651;SDS011;43480;53.116;6.734;2024-02-21T02:44:27;21.98;;;8.93;;
57651;SDS011;43480;53.116;6.734;2024-02-21T02:46:53;22.60;;;10.38;;
57651;SDS011;43480;53.116;6.734;2024-02-21T02:49:18;24.10;;;9.88;;
57651;SDS011;43480;53.116;6.734;2024-02-21T02:51:44;22.48;;;9.48;;
57651;SDS011;43480;53.116;6.734;2024-02-21T02:54:10;19.63;;;9.63;;
57651;SDS011;43480;53.116;6.734;2024-02-21T02:56:37;25.67;;;9.55;;
57651;SDS011;43480;53.116;6.734;2024-02-21T02:59:03;22.25;;;9.77;;
57651;SDS011;43480;53.116;6.734;2024-02-21T03:01:28;33.80;;;13.00;;
57651;SDS011;43480;53.116;6.734;2024-02-21T03:03:54;20.83;;;10.43;;
57651;SDS011;43480;53.116;6.734;2024-02-21T03:06:19;23.70;;;10.23;;
57651;SDS011;43480;53.116;6.734;2024-02-21T03:08:45;20.90;;;9.98;;
57651;SDS011;43480;53.116;6.734;2024-02-21T03:11:11;26.15;;;10.85;;
57651;SDS011;43480;53.116;6.734;2024-02-21T03:13:37;20.50;;;10.68;;
57651;SDS011;43480;53.116;6.734;2024-02-21T03:16:03;30.05;;;12.43;;
57651;SDS011;43480;53.116;6.734;2024-02-21T03:18:29;23.55;;;12.60;;
57651;SDS011;43480;53.116;6.734;2024-02-21T03:20:54;28.70;;;11.68;;
57651;SDS011;43480;53.116;6.734;2024-02-21T03:23:20;28.17;;;11.88;;
57651;SDS011;43480;53.116;6.734;2024-02-21T03:25:46;19.15;;;11.27;;
57651;SDS011;43480;53.116;6.734;2024-02-21T03:28:11;30.17;;;12.70;;
57651;SDS011;43480;53.116;6.734;2024-02-21T03:30:37;28.30;;;13.10;;
57651;SDS011;43480;53.116;6.734;2024-02-21T03:33:03;31.08;;;12.13;;
57651;SDS011;43480;53.116;6.734;2024-02-21T03:35:29;31.27;;;13.43;;
57651;SDS011;43480;53.116;6.734;2024-02-21T03:37:55;30.55;;;11.45;;
57651;SDS011;43480;53.116;6.734;2024-02-21T03:40:20;25.92;;;11.25;;
57651;SDS011;43480;53.116;6.734;2024-02-21T03:42:46;26.00;;;12.18;;
57651;SDS011;43480;53.116;6.734;2024-02-21T03:45:11;30.63;;;11.93;;
57651;SDS011;43480;53.116;6.734;2024-02-21T03:47:37;34.83;;;12.02;;
57651;SDS011;43480;53.116;6.734;2024-02-21T03:50:03;29.23;;;12.35;;
57651;SDS011;43480;53.116;6.734;2024-02-21T03:52:30;44.65;;;13.07;;
57651;SDS011;43480;53.116;6.734;2024-02-21T03:54:55;23.33;;;13.02;;
57651;SDS011;43480;53.116;6.734;2024-02-21T03:57:21;36.33;;;13.23;;
57651;SDS011;43480;53.116;6.734;2024-02-21T03:59:49;29.95;;;12.48;;
57651;SDS011;43480;53.116;6.734;2024-02-21T04:02:16;28.23;;;12.93;;
57651;SDS011;43480;53.116;6.734;2024-02-21T04:04:43;36.42;;;13.27;;
57651;SDS011;43480;53.116;6.734;2024-02-21T04:07:12;32.20;;;12.43;;
57651;SDS011;43480;53.116;6.734;2024-02-21T04:09:38;25.13;;;12.00;;
57651;SDS011;43480;53.116;6.734;2024-02-21T04:12:04;29.52;;;12.27;;
57651;SDS011;43480;53.116;6.734;2024-02-21T04:14:30;34.55;;;12.25;;
57651;SDS011;43480;53.116;6.734;2024-02-21T04:16:55;31.48;;;12.95;;
57651;SDS011;43480;53.116;6.734;2024-02-21T04:19:21;25.92;;;11.02;;
57651;SDS011;43480;53.116;6.734;2024-02-21T04:21:46;28.35;;;11.80;;
57651;SDS011;43480;53.116;6.734;2024-02-21T04:24:12;27.30;;;12.32;;
57651;SDS011;43480;53.116;6.734;2024-02-21T04:26:38;23.83;;;12.07;;
57651;SDS011;43480;53.116;6.734;2024-02-21T04:29:04;22.27;;;11.15;;
57651;SDS011;43480;53.116;6.734;2024-02-21T04:31:32;33.20;;;12.07;;
57651;SDS011;43480;53.116;6.734;2024-02-21T04:33:58;23.98;;;12.43;;
57651;SDS011;43480;53.116;6.734;2024-02-21T04:36:23;25.10;;;11.57;;
57651;SDS011;43480;53.116;6.734;2024-02-21T04:38:49;24.85;;;11.70;;
57651;SDS011;43480;53.116;6.734;2024-02-21T04:41:15;32.47;;;12.57;;
57651;SDS011;43480;53.116;6.734;2024-02-21T04:43:41;25.45;;;11.60;;
57651;SDS011;43480;53.116;6.734;2024-02-21T04:46:06;32.50;;;12.02;;
57651;SDS011;43480;53.116;6.734;2024-02-21T04:48:32;24.92;;;11.30;;
57651;SDS011;43480;53.116;6.734;2024-02-21T04:50:58;27.88;;;11.82;;
57651;SDS011;43480;53.116;6.734;2024-02-21T04:53:23;27.70;;;11.32;;
57651;SDS011;43480;53.116;6.734;2024-02-21T04:55:49;31.52;;;12.65;;
57651;SDS011;43480;53.116;6.734;2024-02-21T04:58:15;26.13;;;11.98;;
57651;SDS011;43480;53.116;6.734;2024-02-21T05:00:40;25.98;;;10.98;;
57651;SDS011;43480;53.116;6.734;2024-02-21T05:03:06;30.45;;;12.15;;
57651;SDS011;43480;53.116;6.734;2024-02-21T05:05:32;27.85;;;12.15;;
57651;SDS011;43480;53.116;6.734;2024-02-21T05:07:57;31.33;;;13.82;;
57651;SDS011;43480;53.116;6.734;2024-02-21T05:10:23;25.23;;;11.13;;
57651;SDS011;43480;53.116;6.734;2024-02-21T05:12:49;35.92;;;12.32;;
57651;SDS011;43480;53.116;6.734;2024-02-21T05:15:14;29.55;;;11.88;;
57651;SDS011;43480;53.116;6.734;2024-02-21T05:17:40;25.05;;;11.25;;
57651;SDS011;43480;53.116;6.734;2024-02-21T05:20:07;26.27;;;10.93;;
57651;SDS011;43480;53.116;6.734;2024-02-21T05:22:33;24.65;;;10.23;;
57651;SDS011;43480;53.116;6.734;2024-02-21T05:24:59;26.08;;;10.32;;
57651;SDS011;43480;53.116;6.734;2024-02-21T05:27:25;26.67;;;10.20;;
57651;SDS011;43480;53.116;6.734;2024-02-21T05:29:51;24.38;;;11.25;;
57651;SDS011;43480;53.116;6.734;2024-02-21T05:32:18;27.45;;;10.90;;
57651;SDS011;43480;53.116;6.734;2024-02-21T05:34:44;19.90;;;9.35;;
57651;SDS011;43480;53.116;6.734;2024-02-21T05:37:09;27.02;;;9.65;;
57651;SDS011;43480;53.116;6.734;2024-02-21T05:39:35;31.25;;;11.82;;
57651;SDS011;43480;53.116;6.734;2024-02-21T05:42:00;22.10;;;11.32;;
57651;SDS011;43480;53.116;6.734;2024-02-21T05:44:26;31.35;;;11.77;;
57651;SDS011;43480;53.116;6.734;2024-02-21T05:46:52;28.20;;;10.93;;
57651;SDS011;43480;53.116;6.734;2024-02-21T05:49:18;29.50;;;13.32;;
57651;SDS011;43480;53.116;6.734;2024-02-21T05:51:43;34.63;;;13.02;;
57651;SDS011;43480;53.116;6.734;2024-02-21T05:54:09;34.47;;;15.25;;
57651;SDS011;43480;53.116;6.734;2024-02-21T05:56:35;36.17;;;11.38;;
57651;SDS011;43480;53.116;6.734;2024-02-21T05:59:01;35.67;;;12.23;;
57651;SDS011;43480;53.116;6.734;2024-02-21T06:01:27;28.95;;;13.18;;
57651;SDS011;43480;53.116;6.734;2024-02-21T06:03:53;27.25;;;11.35;;
57651;SDS011;43480;53.116;6.734;2024-02-21T06:06:19;26.23;;;10.85;;
57651;SDS011;43480;53.116;6.734;2024-02-21T06:08:46;25.55;;;13.60;;
57651;SDS011;43480;53.116;6.734;2024-02-21T06:11:12;26.55;;;11.35;;
57651;SDS011;43480;53.116;6.734;2024-02-21T06:13:40;24.77;;;11.75;;
57651;SDS011;43480;53.116;6.734;2024-02-21T06:16:06;32.88;;;13.73;;
57651;SDS011;43480;53.116;6.734;2024-02-21T06:18:32;33.38;;;12.50;;
57651;SDS011;43480;53.116;6.734;2024-02-21T06:21:00;33.58;;;13.55;;
57651;SDS011;43480;53.116;6.734;2024-02-21T06:23:26;26.75;;;12.70;;
57651;SDS011;43480;53.116;6.734;2024-02-21T06:25:52;35.92;;;13.45;;
57651;SDS011;43480;53.116;6.734;2024-02-21T06:28:17;35.38;;;15.07;;
57651;SDS011;43480;53.116;6.734;2024-02-21T06:30:43;31.83;;;14.55;;
57651;SDS011;43480;53.116;6.734;2024-02-21T06:33:08;34.05;;;13.70;;
57651;SDS011;43480;53.116;6.734;2024-02-21T06:35:34;34.50;;;14.43;;
57651;SDS011;43480;53.116;6.734;2024-02-21T06:38:00;39.10;;;15.75;;
57651;SDS011;43480;53.116;6.734;2024-02-21T06:40:25;37.90;;;15.27;;
57651;SDS011;43480;53.116;6.734;2024-02-21T06:42:51;30.92;;;15.57;;
57651;SDS011;43480;53.116;6.734;2024-02-21T06:45:17;28.77;;;14.88;;
57651;SDS011;43480;53.116;6.734;2024-02-21T06:47:43;39.08;;;14.45;;
57651;SDS011;43480;53.116;6.734;2024-02-21T06:50:09;37.97;;;14.63;;
57651;SDS011;43480;53.116;6.734;2024-02-21T06:52:35;37.42;;;14.90;;
57651;SDS011;43480;53.116;6.734;2024-02-21T06:55:01;37.17;;;17.05;;
57651;SDS011;43480;53.116;6.734;2024-02-21T06:57:28;35.28;;;16.05;;
57651;SDS011;43480;53.116;6.734;2024-02-21T06:59:54;42.70;;;17.42;;
57651;SDS011;43480;53.116;6.734;2024-02-21T07:02:19;39.80;;;17.63;;
57651;SDS011;43480;53.116;6.734;2024-02-21T07:04:45;44.88;;;18.13;;
57651;SDS011;43480;53.116;6.734;2024-02-21T07:07:11;57.42;;;16.50;;
57651;SDS011;43480;53.116;6.734;2024-02-21T07:09:37;51.70;;;16.52;;
57651;SDS011;43480;53.116;6.734;2024-02-21T07:12:03;48.75;;;18.08;;
57651;SDS011;43480;53.116;6.734;2024-02-21T07:14:29;43.08;;;14.82;;
57651;SDS011;43480;53.116;6.734;2024-02-21T07:16:57;42.05;;;14.80;;
57651;SDS011;43480;53.116;6.734;2024-02-21T07:19:23;41.63;;;13.50;;
57651;SDS011;43480;53.116;6.734;2024-02-21T07:21:48;43.53;;;14.30;;
57651;SDS011;43480;53.116;6.734;2024-02-21T07:24:14;40.30;;;12.75;;
57651;SDS011;43480;53.116;6.734;2024-02-21T07:26:43;41.75;;;12.63;;
57651;SDS011;43480;53.116;6.734;2024-02-21T07:29:09;44.08;;;13.68;;
57651;SDS011;43480;53.116;6.734;2024-02-21T07:31:41;34.42;;;13.18;;
57651;SDS011;43480;53.116;6.734;2024-02-21T07:34:08;32.17;;;11.88;;
57651;SDS011;43480;53.116;6.734;2024-02-21T07:36:34;27.83;;;10.52;;
57651;SDS011;43480;53.116;6.734;2024-02-21T07:38:59;31.52;;;10.75;;
57651;SDS011;43480;53.116;6.734;2024-02-21T07:41:25;26.92;;;11.07;;
57651;SDS011;43480;53.116;6.734;2024-02-21T07:43:53;31.63;;;11.10;;
57651;SDS011;43480;53.116;6.734;2024-02-21T07:46:19;34.47;;;10.75;;
57651;SDS011;43480;53.116;6.734;2024-02-21T07:48:45;23.95;;;10.75;;
57651;SDS011;43480;53.116;6.734;2024-02-21T07:51:11;22.40;;;10.30;;
57651;SDS011;43480;53.116;6.734;2024-02-21T07:53:38;23.42;;;9.68;;
57651;SDS011;43480;53.116;6.734;2024-02-21T07:56:07;25.83;;;9.93;;
57651;SDS011;43480;53.116;6.734;2024-02-21T07:58:33;28.33;;;10.40;;
57651;SDS011;43480;53.116;6.734;2024-02-21T08:00:58;22.48;;;10.18;;
57651;SDS011;43480;53.116;6.734;2024-02-21T08:03:24;28.80;;;10.45;;
57651;SDS011;43480;53.116;6.734;2024-02-21T08:05:50;20.33;;;9.13;;
57651;SDS011;43480;53.116;6.734;2024-02-21T08:08:16;27.10;;;8.85;;
57651;SDS011;43480;53.116;6.734;2024-02-21T08:10:45;28.02;;;10.27;;
57651;SDS011;43480;53.116;6.734;2024-02-21T08:13:10;20.15;;;8.45;;
57651;SDS011;43480;53.116;6.734;2024-02-21T08:15:36;27.42;;;9.68;;
57651;SDS011;43480;53.116;6.734;2024-02-21T08:18:04;25.50;;;9.65;;
57651;SDS011;43480;53.116;6.734;2024-02-21T08:20:30;25.13;;;9.52;;
57651;SDS011;43480;53.116;6.734;2024-02-21T08:22:56;24.17;;;10.13;;
57651;SDS011;43480;53.116;6.734;2024-02-21T08:25:21;28.85;;;8.95;;
57651;SDS011;43480;53.116;6.734;2024-02-21T08:27:47;22.73;;;10.55;;
57651;SDS011;43480;53.116;6.734;2024-02-21T08:30:13;26.75;;;10.10;;
57651;SDS011;43480;53.116;6.734;2024-02-21T08:32:39;21.67;;;9.88;;
57651;SDS011;43480;53.116;6.734;2024-02-21T08:35:04;22.50;;;10.50;;
57651;SDS011;43480;53.116;6.734;2024-02-21T08:37:31;29.90;;;11.70;;
57651;SDS011;43480;53.116;6.734;2024-02-21T08:39:56;28.98;;;12.73;;
57651;SDS011;43480;53.116;6.734;2024-02-21T08:42:22;28.35;;;13.48;;
57651;SDS011;43480;53.116;6.734;2024-02-21T08:44:48;25.38;;;14.50;;
57651;SDS011;43480;53.116;6.734;2024-02-21T08:47:14;29.95;;;14.05;;
57651;SDS011;43480;53.116;6.734;2024-02-21T08:49:39;33.47;;;13.65;;
57651;SDS011;43480;53.116;6.734;2024-02-21T08:52:05;32.13;;;13.90;;
57651;SDS011;43480;53.116;6.734;2024-02-21T08:54:31;28.40;;;14.65;;
57651;SDS011;43480;53.116;6.734;2024-02-21T08:57:00;26.67;;;14.82;;
57651;SDS011;43480;53.116;6.734;2024-02-21T08:59:26;29.85;;;14.25;;
57651;SDS011;43480;53.116;6.734;2024-02-21T09:01:52;25.05;;;13.77;;
57651;SDS011;43480;53.116;6.734;2024-02-21T09:04:18;25.67;;;14.32;;
57651;SDS011;43480;53.116;6.734;2024-02-21T09:06:44;27.90;;;13.77;;
57651;SDS011;43480;53.116;6.734;2024-02-21T09:09:11;25.10;;;14.18;;
57651;SDS011;43480;53.116;6.734;2024-02-21T09:11:37;33.25;;;14.90;;
57651;SDS011;43480;53.116;6.734;2024-02-21T09:14:03;28.08;;;14.20;;
57651;SDS011;43480;53.116;6.734;2024-02-21T09:16:32;33.80;;;14.18;;
57651;SDS011;43480;53.116;6.734;2024-02-21T09:18:57;26.35;;;14.30;;
57651;SDS011;43480;53.116;6.734;2024-02-21T09:21:23;27.23;;;14.80;;
57651;SDS011;43480;53.116;6.734;2024-02-21T09:23:49;25.75;;;15.18;;
57651;SDS011;43480;53.116;6.734;2024-02-21T09:26:15;31.33;;;14.73;;
57651;SDS011;43480;53.116;6.734;2024-02-21T09:28:42;29.17;;;15.07;;
57651;SDS011;43480;53.116;6.734;2024-02-21T09:31:09;30.90;;;15.93;;
57651;SDS011;43480;53.116;6.734;2024-02-21T09:33:34;33.42;;;19.17;;
57651;SDS011;43480;53.116;6.734;2024-02-21T09:36:00;29.98;;;16.83;;
57651;SDS011;43480;53.116;6.734;2024-02-21T09:38:26;32.50;;;16.67;;
57651;SDS011;43480;53.116;6.734;2024-02-21T09:40:58;25.15;;;15.70;;
57651;SDS011;43480;53.116;6.734;2024-02-21T09:43:28;27.83;;;16.67;;
57651;SDS011;43480;53.116;6.734;2024-02-21T09:45:54;28.42;;;18.50;;
57651;SDS011;43480;53.116;6.734;2024-02-21T09:48:34;34.35;;;20.10;;
57651;SDS011;43480;53.116;6.734;2024-02-21T09:51:11;33.15;;;19.75;;
57651;SDS011;43480;53.116;6.734;2024-02-21T09:53:39;33.78;;;20.77;;
57651;SDS011;43480;53.116;6.734;2024-02-21T09:56:10;31.95;;;18.42;;
57651;SDS011;43480;53.116;6.734;2024-02-21T09:58:36;32.35;;;19.73;;
57651;SDS011;43480;53.116;6.734;2024-02-21T10:01:02;31.83;;;17.67;;
57651;SDS011;43480;53.116;6.734;2024-02-21T10:03:31;33.17;;;19.73;;
57651;SDS011;43480;53.116;6.734;2024-02-21T10:05:58;36.58;;;20.30;;
57651;SDS011;43480;53.116;6.734;2024-02-21T10:08:26;30.42;;;18.35;;
57651;SDS011;43480;53.116;6.734;2024-02-21T10:10:52;38.42;;;21.13;;
57651;SDS011;43480;53.116;6.734;2024-02-21T10:13:27;27.95;;;19.17;;
57651;SDS011;43480;53.116;6.734;2024-02-21T10:16:04;31.05;;;18.13;;
57651;SDS011;43480;53.116;6.734;2024-02-21T10:18:31;32.15;;;19.40;;
57651;SDS011;43480;53.116;6.734;2024-02-21T10:21:04;31.15;;;18.90;;
57651;SDS011;43480;53.116;6.734;2024-02-21T10:23:45;35.58;;;22.75;;
57651;SDS011;43480;53.116;6.734;2024-02-21T10:26:12;32.53;;;20.08;;
57651;SDS011;43480;53.116;6.734;2024-02-21T10:28:38;27.40;;;18.25;;
57651;SDS011;43480;53.116;6.734;2024-02-21T10:31:07;31.95;;;20.70;;
57651;SDS011;43480;53.116;6.734;2024-02-21T10:33:34;34.92;;;19.50;;
57651;SDS011;43480;53.116;6.734;2024-02-21T10:36:09;31.13;;;20.65;;
57651;SDS011;43480;53.116;6.734;2024-02-21T10:38:39;32.38;;;19.23;;
57651;SDS011;43480;53.116;6.734;2024-02-21T10:41:05;31.95;;;20.55;;
57651;SDS011;43480;53.116;6.734;2024-02-21T10:43:38;35.65;;;19.42;;
57651;SDS011;43480;53.116;6.734;2024-02-21T10:46:07;27.98;;;19.23;;
57651;SDS011;43480;53.116;6.734;2024-02-21T10:48:43;29.42;;;17.92;;
57651;SDS011;43480;53.116;6.734;2024-02-21T10:51:19;26.60;;;18.90;;
57651;SDS011;43480;53.116;6.734;2024-02-21T10:56:52;30.65;;;19.08;;
57651;SDS011;43480;53.116;6.734;2024-02-21T10:59:21;27.88;;;17.48;;
57651;SDS011;43480;53.116;6.734;2024-02-21T11:01:48;23.63;;;17.85;;
57651;SDS011;43480;53.116;6.734;2024-02-21T11:04:13;27.50;;;19.42;;
57651;SDS011;43480;53.116;6.734;2024-02-21T11:06:39;27.63;;;19.15;;
57651;SDS011;43480;53.116;6.734;2024-02-21T11:09:09;22.85;;;16.80;;
57651;SDS011;43480;53.116;6.734;2024-02-21T11:11:39;26.67;;;18.10;;
57651;SDS011;43480;53.116;6.734;2024-02-21T11:16:40;26.63;;;17.15;;
57651;SDS011;43480;53.116;6.734;2024-02-21T11:21:50;26.58;;;16.83;;
57651;SDS011;43480;53.116;6.734;2024-02-21T11:24:30;25.67;;;17.05;;
57651;SDS011;43480;53.116;6.734;2024-02-21T11:27:12;27.95;;;17.83;;
57651;SDS011;43480;53.116;6.734;2024-02-21T11:29:45;23.23;;;15.40;;
57651;SDS011;43480;53.116;6.734;2024-02-21T11:32:15;26.23;;;17.10;;
57651;SDS011;43480;53.116;6.734;2024-02-21T11:34:56;23.73;;;14.85;;
57651;SDS011;43480;53.116;6.734;2024-02-21T11:37:30;23.35;;;14.52;;
57651;SDS011;43480;53.116;6.734;2024-02-21T11:40:02;20.73;;;14.80;;
57651;SDS011;43480;53.116;6.734;2024-02-21T11:42:29;19.70;;;14.25;;
57651;SDS011;43480;53.116;6.734;2024-02-21T11:44:56;23.98;;;14.13;;
57651;SDS011;43480;53.116;6.734;2024-02-21T11:47:22;18.63;;;12.73;;
57651;SDS011;43480;53.116;6.734;2024-02-21T11:49:49;18.75;;;11.38;;
57651;SDS011;43480;53.116;6.734;2024-02-21T11:52:19;21.92;;;12.65;;
57651;SDS011;43480;53.116;6.734;2024-02-21T11:54:50;18.42;;;12.68;;
57651;SDS011;43480;53.116;6.734;2024-02-21T11:57:17;18.52;;;11.77;;
57651;SDS011;43480;53.116;6.734;2024-02-21T11:59:46;20.08;;;12.27;;
57651;SDS011;43480;53.116;6.734;2024-02-21T12:02:14;22.55;;;12.80;;
57651;SDS011;43480;53.116;6.734;2024-02-21T12:04:41;20.27;;;11.00;;
57651;SDS011;43480;53.116;6.734;2024-02-21T12:07:08;19.40;;;12.63;;
57651;SDS011;43480;53.116;6.734;2024-02-21T12:09:34;23.33;;;11.73;;
57651;SDS011;43480;53.116;6.734;2024-02-21T12:12:01;21.15;;;11.90;;
57651;SDS011;43480;53.116;6.734;2024-02-21T12:14:32;20.50;;;13.35;;
57651;SDS011;43480;53.116;6.734;2024-02-21T12:16:59;19.40;;;11.27;;
57651;SDS011;43480;53.116;6.734;2024-02-21T12:19:26;21.63;;;13.75;;
57651;SDS011;43480;53.116;6.734;2024-02-21T12:21:54;18.13;;;12.00;;
57651;SDS011;43480;53.116;6.734;2024-02-21T12:24:22;17.13;;;11.98;;
57651;SDS011;43480;53.116;6.734;2024-02-21T12:26:50;17.13;;;11.32;;
57651;SDS011;43480;53.116;6.734;2024-02-21T12:29:22;17.95;;;10.80;;
57651;SDS011;43480;53.116;6.734;2024-02-21T12:31:50;20.10;;;11.45;;
57651;SDS011;43480;53.116;6.734;2024-02-21T12:34:16;16.40;;;11.52;;
57651;SDS011;43480;53.116;6.734;2024-02-21T12:36:42;16.33;;;10.38;;
57651;SDS011;43480;53.116;6.734;2024-02-21T12:39:12;19.35;;;12.35;;
57651;SDS011;43480;53.116;6.734;2024-02-21T12:41:38;19.75;;;11.93;;
57651;SDS011;43480;53.116;6.734;2024-02-21T12:44:06;20.98;;;12.13;;
57651;SDS011;43480;53.116;6.734;2024-02-21T12:46:33;17.35;;;11.27;;
57651;SDS011;43480;53.116;6.734;2024-02-21T12:48:59;16.27;;;10.90;;
57651;SDS011;43480;53.116;6.734;2024-02-21T12:51:25;17.40;;;11.00;;
57651;SDS011;43480;53.116;6.734;2024-02-21T12:53:51;16.83;;;11.63;;
57651;SDS011;43480;53.116;6.734;2024-02-21T12:56:17;16.48;;;11.07;;
57651;SDS011;43480;53.116;6.734;2024-02-21T12:58:43;15.98;;;11.40;;
57651;SDS011;43480;53.116;6.734;2024-02-21T13:01:10;16.85;;;10.93;;
57651;SDS011;43480;53.116;6.734;2024-02-21T13:03:35;14.82;;;10.85;;
57651;SDS011;43480;53.116;6.734;2024-02-21T13:06:02;17.25;;;11.32;;
57651;SDS011;43480;53.116;6.734;2024-02-21T13:08:28;13.32;;;9.30;;
57651;SDS011;43480;53.116;6.734;2024-02-21T13:10:54;14.82;;;8.90;;
57651;SDS011;43480;53.116;6.734;2024-02-21T13:13:20;13.23;;;8.63;;
57651;SDS011;43480;53.116;6.734;2024-02-21T13:15:45;12.02;;;8.05;;
57651;SDS011;43480;53.116;6.734;2024-02-21T13:18:11;11.40;;;8.00;;
57651;SDS011;43480;53.116;6.734;2024-02-21T13:20:37;12.30;;;8.02;;
57651;SDS011;43480;53.116;6.734;2024-02-21T13:23:03;10.27;;;7.38;;
57651;SDS011;43480;53.116;6.734;2024-02-21T13:25:29;11.95;;;6.85;;
57651;SDS011;43480;53.116;6.734;2024-02-21T13:27:55;11.80;;;7.68;;
57651;SDS011;43480;53.116;6.734;2024-02-21T13:30:21;12.70;;;8.07;;
57651;SDS011;43480;53.116;6.734;2024-02-21T13:32:47;9.02;;;6.50;;
57651;SDS011;43480;53.116;6.734;2024-02-21T13:35:14;8.55;;;5.82;;
57651;SDS011;43480;53.116;6.734;2024-02-21T13:37:40;8.68;;;6.68;;
57651;SDS011;43480;53.116;6.734;2024-02-21T13:40:07;9.40;;;6.40;;
57651;SDS011;43480;53.116;6.734;2024-02-21T13:42:36;13.35;;;6.10;;
57651;SDS011;43480;53.116;6.734;2024-02-21T13:45:03;8.65;;;5.82;;
57651;SDS011;43480;53.116;6.734;2024-02-21T13:47:30;9.60;;;6.80;;
57651;SDS011;43480;53.116;6.734;2024-02-21T13:49:57;9.77;;;6.00;;
57651;SDS011;43480;53.116;6.734;2024-02-21T13:52:23;8.68;;;5.70;;
57651;SDS011;43480;53.116;6.734;2024-02-21T13:54:51;9.88;;;6.22;;
57651;SDS011;43480;53.116;6.734;2024-02-21T13:57:17;9.38;;;6.03;;
57651;SDS011;43480;53.116;6.734;2024-02-21T13:59:43;12.27;;;6.30;;
57651;SDS011;43480;53.116;6.734;2024-02-21T14:02:09;9.63;;;6.05;;
57651;SDS011;43480;53.116;6.734;2024-02-21T14:04:35;10.73;;;6.25;;
57651;SDS011;43480;53.116;6.734;2024-02-21T14:07:01;10.20;;;6.78;;
57651;SDS011;43480;53.116;6.734;2024-02-21T14:09:27;9.73;;;6.70;;
57651;SDS011;43480;53.116;6.734;2024-02-21T14:11:57;10.75;;;7.10;;
57651;SDS011;43480;53.116;6.734;2024-02-21T14:14:23;10.93;;;7.30;;
57651;SDS011;43480;53.116;6.734;2024-02-21T14:16:48;10.95;;;7.38;;
57651;SDS011;43480;53.116;6.734;2024-02-21T14:19:14;11.00;;;8.02;;
57651;SDS011;43480;53.116;6.734;2024-02-21T14:21:40;14.20;;;8.00;;
57651;SDS011;43480;53.116;6.734;2024-02-21T14:24:06;12.55;;;7.18;;
57651;SDS011;43480;53.116;6.734;2024-02-21T14:26:32;10.45;;;7.10;;
57651;SDS011;43480;53.116;6.734;2024-02-21T14:28:58;10.45;;;7.85;;
57651;SDS011;43480;53.116;6.734;2024-02-21T14:31:24;8.48;;;7.53;;